Desbiens, Canada
Current Conditions -  °F | °C
As of 4:00 AM on Monday 20 Oct 2014 (Local Time) from CYRJ Reporting Station
Overcast Overcast  
Wind Chill: 30°   Ceiling: 3500
Heat Index: 36°   Visibility: 25mi
Dew Point: 25°   Wind: 7mph
Humidity: 65%   Direction: 300°WNW
Pressure: 29.84"   Gusts: NA
Location:  48.42°N, 71.95°W
Report Text: CYRJ 200800Z 30006KT 25SM OVC035 02/M04 A2984 RMK SC8 SLP113
Loading
Personal Weather Stations






























Interactive Weather Map
Tropical Storm Tracking
New forecast layout! Learn more

10-Day Weather Forecast

Advertisements
Track Severe Weather on mobile